Time;durP1;ratioP1;P1;durP2;ratioP2;P2;SDS_P1;SDS_P2;PMS_P1;PMS_P2;Temp;Humidity;BMP_temperature;BMP_pressure;BME280_temperature;BME280_humidity;BME280_pressure;Samples;Min_cycle;Max_cycle;Signal;HPM_P1;HPM_P2
2022/10/01 00:00:46;;;;;;;8.25;4.05;;;;;;;10.79;100.00;100269.94;5072514;28;20064;-66
2022/10/01 00:03:11;;;;;;;8.30;5.00;;;;;;;10.79;100.00;100263.78;5072569;28;20063;-66
2022/10/01 00:05:36;;;;;;;9.07;3.88;;;;;;;10.81;100.00;100264.41;5072375;28;20071;-66
2022/10/01 00:08:02;;;;;;;7.07;4.70;;;;;;;10.79;100.00;100259.25;5071027;28;20059;-66
2022/10/01 00:10:29;;;;;;;6.93;4.70;;;;;;;10.78;100.00;100249.63;5072336;28;20028;-66
2022/10/01 00:12:54;;;;;;;8.13;4.63;;;;;;;10.75;100.00;100236.72;5071941;28;20395;-66
2022/10/01 00:15:20;;;;;;;9.32;4.95;;;;;;;10.74;100.00;100222.59;5072238;28;20036;-66
2022/10/01 00:17:46;;;;;;;7.32;4.85;;;;;;;10.73;100.00;100217.44;5072262;28;20033;-66
2022/10/01 00:20:12;;;;;;;6.45;4.30;;;;;;;10.74;100.00;100222.59;5072150;28;20036;-67
2022/10/01 00:22:38;;;;;;;7.15;4.97;;;;;;;10.78;100.00;100214.16;5072155;28;20028;-66
2022/10/01 00:25:05;;;;;;;8.68;4.75;;;;;;;10.75;100.00;100205.53;5072031;28;20048;-65
2022/10/01 00:27:30;;;;;;;11.13;5.07;;;;;;;10.77;100.00;100199.16;5071682;28;20089;-65
2022/10/01 00:29:56;;;;;;;7.78;4.53;;;;;;;10.77;100.00;100208.00;5072106;28;20024;-65
2022/10/01 00:32:21;;;;;;;6.97;4.10;;;;;;;10.74;100.00;100201.25;5071912;28;20067;-65
2022/10/01 00:34:47;;;;;;;7.85;4.90;;;;;;;10.78;100.00;100198.16;5071866;28;20474;-65
2022/10/01 00:37:14;;;;;;;7.28;4.88;;;;;;;10.74;100.00;100197.72;5072094;28;20115;-65
2022/10/01 00:39:39;;;;;;;6.25;3.88;;;;;;;10.82;100.00;100205.50;5071824;28;20430;-65
2022/10/01 00:42:16;;;;;;;7.75;4.30;;;;;;;10.86;100.00;100195.22;5071762;28;20169;-65
2022/10/01 00:44:42;;;;;;;7.47;4.32;;;;;;;10.83;100.00;100175.13;5071540;28;20029;-66
2022/10/01 00:47:35;;;;;;;7.13;4.53;;;;;;;10.85;100.00;100180.25;5071613;28;20086;-65
2022/10/01 00:50:25;;;;;;;11.35;4.75;;;;;;;10.86;100.00;100198.69;5071627;28;20028;-65
2022/10/01 00:52:55;;;;;;;7.20;4.22;;;;;;;10.86;100.00;100195.22;5071459;28;20031;-65
2022/10/01 00:55:41;;;;;;;6.70;4.75;;;;;;;10.84;100.00;100191.94;5071497;28;20044;-65
2022/10/01 00:58:09;;;;;;;8.13;4.40;;;;;;;10.82;100.00;100189.50;5071483;28;20021;-65
2022/10/01 01:00:36;;;;;;;11.13;5.10;;;;;;;10.81;100.00;100179.84;5070676;28;20712;-66
2022/10/01 01:03:03;;;;;;;9.57;4.85;;;;;;;10.78;100.00;100172.28;5071238;28;20032;-66
2022/10/01 01:05:29;;;;;;;9.85;5.57;;;;;;;10.77;100.00;100177.81;5071332;28;20028;-65
2022/10/01 01:07:54;;;;;;;8.73;4.40;;;;;;;10.79;100.00;100167.75;5070938;28;20078;-65
2022/10/01 01:10:48;;;;;;;8.73;4.82;;;;;;;10.79;100.00;100175.75;5071328;28;20036;-65
2022/10/01 01:13:22;;;;;;;9.20;4.90;;;;;;;10.75;100.00;100178.88;5069724;28;20391;-65
2022/10/01 01:16:13;;;;;;;7.40;4.00;;;;;;;10.70;100.00;100175.22;5070797;28;20024;-65
2022/10/01 01:18:53;;;;;;;10.52;4.75;;;;;;;10.64;100.00;100170.75;5071228;28;20329;-65
2022/10/01 01:21:41;;;;;;;10.35;5.57;;;;;;;10.61;100.00;100133.81;5071148;28;20024;-66
2022/10/01 01:24:40;;;;;;;7.32;4.18;;;;;;;10.58;100.00;100144.91;5071073;28;20016;-65
2022/10/01 01:27:32;;;;;;;10.13;4.82;;;;;;;10.53;100.00;100103.72;5071005;28;20104;-65
2022/10/01 01:30:04;;;;;;;6.43;3.95;;;;;;;10.50;100.00;100063.31;5070788;28;21015;-65
2022/10/01 01:32:38;;;;;;;6.05;4.13;;;;;;;10.45;100.00;100044.50;5070929;28;20476;-66
2022/10/01 01:35:07;;;;;;;6.90;3.88;;;;;;;10.41;100.00;100027.31;5070726;28;20475;-66
2022/10/01 01:37:39;;;;;;;6.13;3.63;;;;;;;10.37;100.00;100050.91;5070474;28;20025;-65
2022/10/01 01:40:09;;;;;;;;;;;;;;;10.40;100.00;100049.66;5070989;28;20028;-65
2022/10/01 01:42:36;;;;;;;6.55;3.78;;;;;;;10.39;100.00;100062.16;5070622;28;20363;-65
2022/10/01 01:45:07;;;;;;;6.88;3.97;;;;;;;10.40;100.00;100082.47;5070511;28;20029;-65
2022/10/01 01:47:34;;;;;;;5.68;3.95;;;;;;;10.42;100.00;100061.72;5070409;28;20468;-65
2022/10/01 01:50:01;;;;;;;6.72;3.65;;;;;;;10.43;100.00;100070.56;5070513;28;20398;-65
2022/10/01 01:52:28;;;;;;;4.70;2.97;;;;;;;10.46;100.00;100100.28;5070371;28;20383;-65
2022/10/01 01:54:54;;;;;;;5.22;3.85;;;;;;;10.45;100.00;100103.97;5070313;28;20027;-65
2022/10/01 01:57:20;;;;;;;6.63;3.15;;;;;;;10.50;100.00;100093.47;5070317;28;20173;-65
2022/10/01 01:59:46;;;;;;;9.90;3.58;;;;;;;10.50;100.00;100074.81;5070314;28;20037;-65
2022/10/01 02:02:27;;;;;;;5.57;3.05;;;;;;;10.55;100.00;100068.84;5068361;28;20581;-66
2022/10/01 02:05:02;;;;;;;4.13;3.03;;;;;;;10.56;100.00;100064.31;5070263;28;20099;-68
2022/10/01 02:07:30;;;;;;;3.63;2.55;;;;;;;10.56;100.00;100050.97;5070000;28;20380;-68
2022/10/01 02:10:16;;;;;;;4.38;2.63;;;;;;;10.52;100.00;100040.75;5069914;28;20025;-68
2022/10/01 02:13:00;;;;;;;3.78;2.92;;;;;;;10.53;100.00;100039.75;5069262;28;20047;-68
2022/10/01 02:15:55;;;;;;;4.43;2.65;;;;;;;10.55;100.00;100038.69;5069951;28;20033;-68
2022/10/01 02:18:43;;;;;;;4.07;3.10;;;;;;;10.53;100.00;100042.41;5064893;28;20047;-68
2022/10/01 02:21:14;;;;;;;3.20;2.88;;;;;;;10.51;100.00;100046.31;5049463;28;20040;-68
2022/10/01 02:23:45;;;;;;;4.37;2.87;;;;;;;10.44;100.00;100045.53;5069870;28;20174;-68
2022/10/01 02:26:16;;;;;;;4.32;3.13;;;;;;;10.41;100.00;100043.31;5069790;28;20316;-68
2022/10/01 02:28:44;;;;;;;5.25;3.13;;;;;;;10.40;100.00;100028.31;5069713;28;20016;-68
2022/10/01 02:31:11;;;;;;;3.53;2.58;;;;;;;10.39;100.00;100016.84;5069713;28;20483;-68
2022/10/01 02:33:38;;;;;;;3.78;2.25;;;;;;;10.35;100.00;100002.34;5069619;28;20032;-68
2022/10/01 02:36:07;;;;;;;4.10;2.10;;;;;;;10.35;100.00;100009.50;5069596;28;20044;-68
2022/10/01 02:38:36;;;;;;;1.92;1.83;;;;;;;10.43;100.00;100003.94;5068237;28;20031;-70
2022/10/01 02:41:06;;;;;;;3.42;2.17;;;;;;;10.45;100.00;100015.16;5069594;28;20075;-69
2022/10/01 02:43:37;;;;;;;4.15;2.38;;;;;;;10.42;100.00;100002.28;5069611;28;20391;-68
2022/10/01 02:46:20;;;;;;;2.97;2.08;;;;;;;10.43;100.00;99988.75;5069427;28;20359;-68
2022/10/01 02:48:45;;;;;;;2.75;2.13;;;;;;;10.38;100.00;99982.44;5069376;28;20036;-68
2022/10/01 02:51:21;;;;;;;3.35;2.55;;;;;;;10.45;100.00;99992.03;5067922;28;20086;-68
2022/10/01 02:53:51;;;;;;;2.28;1.88;;;;;;;10.42;100.00;99973.75;5069362;28;20464;-68
2022/10/01 02:57:21;;;;;;;2.08;1.88;;;;;;;10.45;100.00;99985.84;5069260;28;20021;-68
2022/10/01 02:59:06;;;;;;;3.13;1.55;;;;;;;10.48;100.00;99988.91;5068185;28;20617;-68
2022/10/01 03:01:32;;;;;;;2.35;1.75;;;;;;;10.52;100.00;99991.94;5069257;28;20020;-68
2022/10/01 03:03:58;;;;;;;2.10;1.75;;;;;;;10.50;100.00;99984.16;5069084;28;20128;-69
2022/10/01 03:06:23;;;;;;;3.47;1.90;;;;;;;10.56;100.00;99987.00;5068883;28;20155;-68
2022/10/01 03:08:48;;;;;;;2.85;1.75;;;;;;;10.49;100.00;99971.88;5069121;28;20119;-68
2022/10/01 03:11:14;;;;;;;2.88;1.80;;;;;;;10.61;100.00;99998.66;5069254;28;20447;-68
2022/10/01 03:13:42;;;;;;;2.33;1.80;;;;;;;10.62;100.00;99997.63;5069344;28;20025;-68
2022/10/01 03:16:07;;;;;;;2.13;1.77;;;;;;;10.64;100.00;99984.06;5069194;28;20127;-68
2022/10/01 03:18:32;;;;;;;2.08;1.90;;;;;;;10.68;100.00;99985.25;5069178;28;20111;-66
2022/10/01 03:20:58;;;;;;;2.40;2.05;;;;;;;10.69;100.00;99968.25;5069016;28;20064;-65
2022/10/01 03:23:23;;;;;;;2.70;1.85;;;;;;;10.68;100.00;99970.06;5071432;28;20067;-65
2022/10/01 03:25:48;;;;;;;3.80;1.83;;;;;;;10.70;100.00;99968.00;5073304;28;20064;-65
2022/10/01 03:28:14;;;;;;;4.82;1.90;;;;;;;10.71;100.00;99976.81;5073134;28;20095;-65
2022/10/01 03:30:39;;;;;;;1.88;1.60;;;;;;;10.72;100.00;99965.94;5073103;28;20506;-66
2022/10/01 03:33:04;;;;;;;3.17;1.60;;;;;;;10.76;100.00;99971.63;5073013;28;20032;-66
2022/10/01 03:35:31;;;;;;;5.20;1.95;;;;;;;10.77;100.00;99975.97;5073165;28;20036;-66
2022/10/01 03:37:57;;;;;;;3.88;1.90;;;;;;;10.80;100.00;99977.38;5072787;28;20039;-66
2022/10/01 03:40:24;;;;;;;3.08;1.60;;;;;;;10.82;100.00;99970.78;5072955;28;20028;-66
2022/10/01 03:42:50;;;;;;;1.75;1.65;;;;;;;10.82;100.00;99968.09;5072861;28;20035;-66
2022/10/01 03:45:15;;;;;;;2.15;2.03;;;;;;;10.82;100.00;99962.78;5072573;28;20099;-65
2022/10/01 03:47:40;;;;;;;1.50;1.40;;;;;;;10.86;100.00;99971.94;5072841;28;20043;-65
2022/10/01 03:50:06;;;;;;;1.42;1.33;;;;;;;10.88;100.00;99977.88;5072699;28;20040;-65
2022/10/01 03:52:32;;;;;;;1.88;1.77;;;;;;;10.91;100.00;99974.78;5072687;28;20082;-66
2022/10/01 03:54:57;;;;;;;3.05;2.17;;;;;;;10.93;100.00;99985.25;5072694;28;20064;-65
2022/10/01 03:57:22;;;;;;;1.40;1.30;;;;;;;10.94;100.00;99977.00;5072667;28;20084;-65
2022/10/01 03:59:48;;;;;;;2.10;1.30;;;;;;;10.97;100.00;99983.75;5072603;28;20024;-66
2022/10/01 04:02:13;;;;;;;3.58;1.95;;;;;;;11.00;100.00;99985.16;5072357;28;20032;-66
2022/10/01 04:04:38;;;;;;;2.35;1.48;;;;;;;10.91;100.00;99972.09;5072111;28;20031;-66
2022/10/01 04:07:04;;;;;;;1.20;1.10;;;;;;;11.03;100.00;99987.38;5072120;28;20516;-66
2022/10/01 04:09:29;;;;;;;3.28;1.25;;;;;;;11.06;100.00;99992.31;5072327;28;20029;-66
2022/10/01 04:11:54;;;;;;;2.75;1.27;;;;;;;11.10;100.00;99998.81;5072262;28;20472;-65
2022/10/01 04:14:20;;;;;;;3.63;1.23;;;;;;;11.13;100.00;99993.03;5072445;28;20064;-65
2022/10/01 04:16:46;;;;;;;2.67;1.48;;;;;;;11.17;100.00;99994.22;5070897;28;20475;-66
2022/10/01 04:19:11;;;;;;;1.23;1.13;;;;;;;11.18;100.00;99993.19;5072233;28;20063;-66
2022/10/01 04:21:37;;;;;;;1.98;1.25;;;;;;;11.20;100.00;99999.13;5072154;28;20345;-65
2022/10/01 04:24:04;;;;;;;1.63;1.08;;;;;;;11.23;100.00;99997.88;5070737;28;20456;-66
2022/10/01 04:26:29;;;;;;;0.98;0.90;;;;;;;11.24;100.00;100003.00;5071998;28;20036;-66
2022/10/01 04:28:54;;;;;;;0.85;0.85;;;;;;;11.27;100.00;99993.72;5071993;28;20063;-66
2022/10/01 04:31:25;;;;;;;0.68;0.68;;;;;;;11.28;100.00;99988.16;5071973;28;20036;-66
2022/10/01 04:33:53;;;;;;;0.90;0.90;;;;;;;11.30;100.00;99990.59;5071329;28;20947;-66
2022/10/01 04:36:19;;;;;;;0.80;0.80;;;;;;;11.31;100.00;99994.91;5071656;28;20028;-66
2022/10/01 04:38:44;;;;;;;2.65;0.90;;;;;;;11.33;100.00;100003.50;5071578;28;20086;-66
2022/10/01 04:41:09;;;;;;;1.85;1.70;;;;;;;11.36;100.00;100003.88;5071833;28;20021;-66
2022/10/01 04:43:36;;;;;;;1.10;0.75;;;;;;;11.37;100.00;100002.84;5071739;28;20032;-66
2022/10/01 04:46:01;;;;;;;0.90;0.88;;;;;;;11.40;100.00;100001.59;5071725;28;20117;-65
2022/10/01 04:48:26;;;;;;;1.38;1.00;;;;;;;11.38;100.00;100007.13;5071533;28;20063;-66
2022/10/01 04:50:51;;;;;;;0.90;0.90;;;;;;;11.44;100.00;100004.63;5071571;28;20125;-66
2022/10/01 04:53:17;;;;;;;0.80;0.80;;;;;;;11.46;100.00;100014.03;5071683;28;20063;-69
2022/10/01 04:55:42;;;;;;;2.17;0.88;;;;;;;11.48;100.00;100016.50;5071576;28;20039;-68
2022/10/01 04:58:08;;;;;;;1.40;1.23;;;;;;;11.48;100.00;100029.84;5071520;28;20047;-68
2022/10/01 05:00:34;;;;;;;1.00;0.90;;;;;;;11.50;100.00;100025.06;5071449;28;20058;-68
2022/10/01 05:02:59;;;;;;;1.10;1.00;;;;;;;11.51;100.00;100032.88;5071398;28;20123;-69
2022/10/01 05:05:26;;;;;;;1.83;1.15;;;;;;;11.53;100.00;100032.66;5070767;28;20025;-69
2022/10/01 05:07:52;;;;;;;1.38;1.27;;;;;;;11.53;100.00;100020.13;5071253;28;20032;-68
2022/10/01 05:10:20;;;;;;;3.10;1.30;;;;;;;11.55;100.00;100027.88;5071281;28;20035;-68
2022/10/01 05:12:46;;;;;;;0.80;0.80;;;;;;;11.54;100.00;100027.06;5071271;28;20033;-68
2022/10/01 05:15:13;;;;;;;2.08;1.05;;;;;;;11.55;100.00;100033.22;5071218;28;20040;-68
2022/10/01 05:17:38;;;;;;;1.42;1.30;;;;;;;11.55;100.00;100038.56;5069830;28;20526;-68
2022/10/01 05:20:06;;;;;;;2.33;1.48;;;;;;;11.56;100.00;100046.38;5071021;28;20047;-65
2022/10/01 05:22:32;;;;;;;1.63;1.30;;;;;;;11.57;100.00;100050.66;5070745;28;20476;-65
2022/10/01 05:24:59;;;;;;;2.78;1.70;;;;;;;11.56;100.00;100046.38;5070471;28;20028;-65
2022/10/01 05:27:29;;;;;;;2.17;1.30;;;;;;;11.60;100.00;100060.09;5070873;28;20035;-65
2022/10/01 05:29:55;;;;;;;9.40;1.60;;;;;;;11.54;100.00;100045.78;5070848;28;20123;-66
2022/10/01 05:32:21;;;;;;;3.85;1.95;;;;;;;11.63;100.00;100055.13;5070756;28;20025;-65
2022/10/01 05:34:46;;;;;;;3.30;2.28;;;;;;;11.65;100.00;100062.09;5070759;28;20036;-65
2022/10/01 05:37:11;;;;;;;3.65;1.95;;;;;;;11.68;100.00;100066.97;5070657;28;20163;-65
2022/10/01 05:39:37;;;;;;;4.18;1.63;;;;;;;11.67;100.00;100057.34;5070686;28;20071;-65
2022/10/01 05:42:03;;;;;;;2.15;1.90;;;;;;;11.72;100.00;100068.19;5070700;28;20024;-65
2022/10/01 05:44:33;;;;;;;2.15;1.95;;;;;;;11.73;100.00;100072.47;5070310;28;20040;-65
2022/10/01 05:46:58;;;;;;;5.60;2.65;;;;;;;11.74;100.00;100079.47;5069288;28;20028;-65
2022/10/01 05:49:24;;;;;;;2.67;2.28;;;;;;;11.76;100.00;100069.34;5070429;28;20051;-65
2022/10/01 05:51:49;;;;;;;3.60;2.20;;;;;;;11.74;100.00;100074.13;5068922;28;20033;-65
2022/10/01 05:54:18;;;;;;;2.60;2.13;;;;;;;11.77;100.00;100095.84;5070264;28;20028;-65
2022/10/01 05:56:43;;;;;;;3.28;2.70;;;;;;;11.80;100.00;100105.28;5070226;28;20028;-65
2022/10/01 05:59:09;;;;;;;2.70;2.30;;;;;;;11.81;100.00;100101.56;5069919;28;20032;-65
2022/10/01 06:01:34;;;;;;;4.63;2.65;;;;;;;11.81;100.00;100096.22;5069991;28;20060;-65
2022/10/01 06:04:00;;;;;;;2.80;2.20;;;;;;;11.85;100.00;100097.41;5070036;28;20024;-65
2022/10/01 06:06:26;;;;;;;3.60;2.95;;;;;;;11.87;100.00;100100.72;5069517;28;20056;-65
2022/10/01 06:08:52;;;;;;;3.30;3.00;;;;;;;11.89;100.00;100103.16;5069945;28;20031;-65
2022/10/01 06:11:18;;;;;;;4.03;2.63;;;;;;;11.92;100.00;100102.69;5070051;28;20036;-65
2022/10/01 06:13:45;;;;;;;6.20;3.00;;;;;;;11.93;100.00;100118.53;5069931;28;20364;-66
2022/10/01 06:16:12;;;;;;;3.60;2.53;;;;;;;11.92;100.00;100108.88;5069913;28;20032;-65
2022/10/01 06:18:38;;;;;;;4.50;3.17;;;;;;;11.96;100.00;100112.72;5069787;28;20025;-65
2022/10/01 06:21:04;;;;;;;6.07;3.53;;;;;;;11.94;100.00;100112.13;5069841;28;20064;-65
2022/10/01 06:23:29;;;;;;;6.13;3.42;;;;;;;11.96;100.00;100115.41;5069698;28;20986;-65
2022/10/01 06:25:54;;;;;;;5.30;3.13;;;;;;;12.00;100.00;100119.25;5069328;28;20071;-65
2022/10/01 06:28:20;;;;;;;5.78;3.78;;;;;;;12.01;100.00;100123.56;5069402;28;20586;-65
2022/10/01 06:30:45;;;;;;;7.47;3.28;;;;;;;12.03;100.00;100118.81;5069472;28;20041;-65
2022/10/01 06:33:13;;;;;;;6.32;3.50;;;;;;;12.07;100.00;100127.19;5069735;28;20431;-65
2022/10/01 06:35:46;;;;;;;7.10;4.03;;;;;;;12.10;100.00;100131.25;5069413;28;20158;-65
2022/10/01 06:38:12;;;;;;;6.63;3.70;;;;;;;12.14;100.00;100137.81;5069561;28;20059;-65
2022/10/01 06:40:38;;;;;;;6.20;3.97;;;;;;;12.15;100.00;100131.41;5069427;28;20055;-65
2022/10/01 06:43:06;;;;;;;8.88;4.03;;;;;;;12.15;100.00;100123.41;5069504;28;20039;-65
2022/10/01 06:45:37;;;;;;;7.65;4.72;;;;;;;12.18;100.00;100131.81;5069138;28;20029;-65
2022/10/01 06:48:03;;;;;;;8.55;4.13;;;;;;;12.23;100.00;100131.09;5069290;28;20036;-65
2022/10/01 06:50:29;;;;;;;8.98;4.30;;;;;;;12.25;100.00;100134.38;5069593;28;20032;-65
2022/10/01 06:52:56;;;;;;;5.80;3.92;;;;;;;12.27;100.00;100127.75;5069456;28;20426;-66
2022/10/01 06:55:25;;;;;;;7.88;4.40;;;;;;;12.28;100.00;100132.06;5069280;28;20024;-65
2022/10/01 06:58:14;;;;;;;7.90;3.40;;;;;;;12.33;100.00;100131.38;5069004;28;20024;-65
2022/10/01 07:00:41;;;;;;;10.10;5.50;;;;;;;12.38;100.00;100138.75;5066163;28;20036;-65
2022/10/01 07:03:10;;;;;;;9.27;4.32;;;;;;;12.45;100.00;100134.13;5069314;28;20036;-66
2022/10/01 07:05:37;;;;;;;9.55;4.90;;;;;;;12.50;100.00;100144.97;5069135;28;20559;-65
2022/10/01 07:08:03;;;;;;;9.77;5.00;;;;;;;12.58;100.00;100155.34;5068707;28;20113;-65
2022/10/01 07:10:31;;;;;;;11.68;6.70;;;;;;;12.67;100.00;100153.97;5069160;28;20076;-65
2022/10/01 07:13:08;;;;;;;8.90;5.07;;;;;;;12.70;100.00;100144.66;5069132;28;20020;-65
2022/10/01 07:15:33;;;;;;;9.50;4.78;;;;;;;12.69;100.00;100157.22;5069181;28;20032;-65
2022/10/01 07:17:59;;;;;;;9.90;5.97;;;;;;;12.68;100.00;100157.44;5069049;28;20031;-65
2022/10/01 07:20:24;;;;;;;10.70;6.25;;;;;;;12.69;100.00;100165.25;5069011;28;20032;-66
2022/10/01 07:22:56;;;;;;;10.20;5.97;;;;;;;12.72;100.00;100158.63;5068966;28;20025;-65
2022/10/01 07:25:22;;;;;;;10.35;5.78;;;;;;;12.75;100.00;100154.69;5068970;28;20032;-65
2022/10/01 07:27:47;;;;;;;12.50;6.70;;;;;;;12.77;100.00;100152.59;5068954;28;20480;-65
2022/10/01 07:30:13;;;;;;;11.88;6.68;;;;;;;12.88;100.00;100165.19;5069005;28;20488;-65
2022/10/01 07:32:38;;;;;;;11.48;6.82;;;;;;;12.96;100.00;100172.09;5069049;28;20116;-65
2022/10/01 07:35:04;;;;;;;9.82;5.45;;;;;;;13.10;100.00;100178.88;5068856;28;20028;-65
2022/10/01 07:37:30;;;;;;;9.52;5.55;;;;;;;13.28;100.00;100178.84;5068857;28;20036;-65
2022/10/01 07:39:55;;;;;;;9.95;5.72;;;;;;;13.40;100.00;100181.50;5068814;28;20032;-65
2022/10/01 07:42:21;;;;;;;10.00;5.13;;;;;;;13.50;100.00;100172.91;5067420;28;20119;-64
2022/10/01 07:44:46;;;;;;;6.57;4.82;;;;;;;13.51;100.00;100178.00;5068900;28;20439;-65
2022/10/01 07:47:11;;;;;;;12.57;5.07;;;;;;;13.49;100.00;100190.00;5068677;28;20399;-65
2022/10/01 07:49:37;;;;;;;14.00;6.57;;;;;;;13.47;100.00;100197.47;5068939;28;20078;-66
2022/10/01 07:52:02;;;;;;;10.48;5.57;;;;;;;13.39;100.00;100198.63;5068877;28;20507;-66
2022/10/01 07:54:27;;;;;;;10.05;6.05;;;;;;;13.34;100.00;100207.34;5068943;28;20024;-66
2022/10/01 07:56:54;;;;;;;10.77;5.47;;;;;;;13.25;100.00;100213.25;5068777;28;20375;-65
2022/10/01 07:59:23;;;;;;;11.07;5.72;;;;;;;13.20;100.00;100218.47;5068647;28;20029;-65
2022/10/01 08:01:50;;;;;;;11.18;5.18;;;;;;;13.11;100.00;100215.31;5068520;28;20391;-65
2022/10/01 08:07:00;;;;;;;11.45;6.28;;;;;;;13.04;100.00;100226.09;5067525;28;20075;-65
2022/10/01 08:09:26;;;;;;;10.25;6.30;;;;;;;13.02;100.00;100214.00;5068566;28;20449;-65
2022/10/01 08:11:51;;;;;;;10.38;4.95;;;;;;;13.00;100.00;100221.47;5072196;28;20028;-65
2022/10/01 08:14:17;;;;;;;10.48;5.88;;;;;;;13.00;100.00;100232.97;5070332;28;20489;-65
2022/10/01 08:16:43;;;;;;;10.57;4.55;;;;;;;13.05;100.00;100230.44;5071321;28;20820;-65
2022/10/01 08:19:08;;;;;;;8.15;4.45;;;;;;;13.10;100.00;100232.44;5068295;28;20035;-65
2022/10/01 08:21:34;;;;;;;9.38;5.10;;;;;;;13.19;100.00;100238.25;5065656;28;20024;-65
2022/10/01 08:24:03;;;;;;;7.90;4.28;;;;;;;13.23;100.00;100242.09;5066987;28;20035;-65
2022/10/01 08:26:29;;;;;;;9.18;4.68;;;;;;;13.32;100.00;100238.91;5067099;28;20020;-66
2022/10/01 08:28:55;;;;;;;9.50;5.07;;;;;;;13.48;100.00;100252.69;5067388;28;20040;-66
2022/10/01 08:31:20;;;;;;;7.55;4.18;;;;;;;13.64;100.00;100256.53;5067309;28;20702;-66
2022/10/01 08:33:46;;;;;;;12.23;5.53;;;;;;;13.68;100.00;100268.44;5067236;28;20029;-66
2022/10/01 08:36:11;;;;;;;10.75;5.97;;;;;;;13.65;100.00;100274.25;5065835;28;20071;-66
2022/10/01 08:38:36;;;;;;;11.27;5.18;;;;;;;13.58;100.00;100267.13;5067484;28;20024;-66
2022/10/01 08:41:20;;;;;;;15.25;7.55;;;;;;;13.53;100.00;100272.38;5067402;28;20033;-65
2022/10/01 08:43:45;;;;;;;14.15;7.65;;;;;;;13.51;100.00;100273.66;5067501;28;20483;-65
2022/10/01 08:46:16;;;;;;;12.13;6.85;;;;;;;13.53;100.00;100260.84;5069241;28;20054;-64
2022/10/01 08:49:06;;;;;;;18.83;7.35;;;;;;;13.57;100.00;100278.06;5071487;28;20098;-64
2022/10/01 08:51:54;;;;;;;17.90;8.00;;;;;;;13.68;100.00;100277.28;5071073;28;20029;-68
2022/10/01 08:54:28;;;;;;;16.77;8.13;;;;;;;13.74;100.00;100275.56;5071579;28;20052;-68
2022/10/01 08:56:58;;;;;;;16.25;9.02;;;;;;;13.79;100.00;100271.13;5071512;28;20372;-67
2022/10/01 08:59:47;;;;;;;17.15;7.75;;;;;;;13.94;100.00;100270.66;5070941;28;20107;-67
2022/10/01 09:02:27;;;;;;;14.48;6.97;;;;;;;13.99;100.00;100272.63;5071407;28;20430;-67
2022/10/01 09:05:03;;;;;;;14.95;6.55;;;;;;;14.09;100.00;100272.88;5071166;28;20048;-67
2022/10/01 09:07:46;;;;;;;15.80;7.55;;;;;;;14.20;100.00;100271.22;5070973;28;20055;-67
2022/10/01 09:10:23;;;;;;;15.95;8.10;;;;;;;14.33;100.00;100286.25;5070891;28;20028;-68
2022/10/01 09:13:16;;;;;;;15.23;6.93;;;;;;;14.43;100.00;100278.44;5071214;28;20031;-68
2022/10/01 09:16:02;;;;;;;13.10;6.70;;;;;;;14.47;100.00;100285.78;5071056;28;20036;-67
2022/10/01 09:18:56;;;;;;;11.52;5.93;;;;;;;14.44;100.00;100297.00;5071158;28;20082;-68
2022/10/01 09:21:53;;;;;;;10.88;5.60;;;;;;;14.39;100.00;100304.13;5070842;28;20024;-68
2022/10/01 09:24:45;;;;;;;13.80;5.80;;;;;;;14.45;100.00;100309.34;5070714;28;20037;-68
2022/10/01 09:27:23;;;;;;;10.70;5.50;;;;;;;14.53;100.00;100310.06;5070808;28;20483;-68
2022/10/01 09:29:53;;;;;;;10.00;5.13;;;;;;;14.64;100.00;100311.91;5070781;28;20047;-68
2022/10/01 09:32:25;;;;;;;10.23;4.75;;;;;;;14.61;100.00;100304.34;5070676;28;20051;-68
2022/10/01 09:34:52;;;;;;;11.80;4.82;;;;;;;14.78;100.00;100310.59;5067813;28;20016;-68
2022/10/01 09:37:42;;;;;;;9.85;4.50;;;;;;;14.92;100.00;100323.75;5065671;28;20067;-68
2022/10/01 09:40:20;;;;;;;15.43;4.85;;;;;;;15.05;100.00;100321.59;5066268;28;20498;-68
2022/10/01 09:42:48;;;;;;;9.40;4.38;;;;;;;15.08;100.00;100321.13;5066279;28;20034;-68
2022/10/01 09:45:15;;;;;;;10.20;4.45;;;;;;;15.07;100.00;100321.38;5066348;28;20450;-68
2022/10/01 09:47:44;;;;;;;8.75;4.35;;;;;;;15.02;100.00;100311.34;5065721;28;20016;-68
2022/10/01 09:50:19;;;;;;;8.52;3.05;;;;;;;15.03;100.00;100312.16;5068542;28;20035;-68
2022/10/01 09:52:47;;;;;;;11.32;3.33;;;;;;;15.12;100.00;100319.59;5068633;28;20388;-68
2022/10/01 09:55:33;;;;;;;10.00;3.03;;;;;;;15.27;100.00;100324.44;5070354;28;20032;-68
2022/10/01 09:58:07;;;;;;;10.15;3.17;;;;;;;15.31;100.00;100322.09;5070180;28;20024;-68
2022/10/01 10:00:32;;;;;;;8.63;3.15;;;;;;;15.32;100.00;100329.88;5070231;28;20083;-67
2022/10/01 10:02:59;;;;;;;7.55;3.45;;;;;;;15.38;100.00;100330.81;5070215;28;20029;-67
2022/10/01 10:05:27;;;;;;;10.20;3.08;;;;;;;15.54;100.00;100321.97;5070012;28;20040;-68
2022/10/01 10:08:09;;;;;;;10.10;3.47;;;;;;;15.83;100.00;100324.63;5070078;28;20119;-68
2022/10/01 10:10:38;;;;;;;8.90;2.88;;;;;;;15.90;99.87;100327.13;5069482;28;20086;-68
2022/10/01 10:13:33;;;;;;;7.57;2.40;;;;;;;15.85;99.16;100327.88;5069880;28;20047;-68
2022/10/01 10:16:06;;;;;;;10.32;2.50;;;;;;;15.73;99.21;100335.22;5067137;28;20028;-69
2022/10/01 10:18:38;;;;;;;6.75;2.25;;;;;;;15.66;100.00;100327.25;5069559;28;20116;-68
2022/10/01 10:21:10;;;;;;;8.57;2.35;;;;;;;15.55;100.00;100336.22;5069850;28;20051;-69
2022/10/01 10:23:46;;;;;;;16.17;2.33;;;;;;;15.49;100.00;100354.13;5069844;28;20032;-68
2022/10/01 10:26:19;;;;;;;6.85;3.55;;;;;;;15.46;100.00;100353.81;5069654;28;20086;-68
2022/10/01 10:28:45;;;;;;;6.95;2.47;;;;;;;15.44;100.00;100363.97;5069371;28;20090;-68
2022/10/01 10:31:43;;;;;;;7.65;3.47;;;;;;;15.37;100.00;100371.34;5069711;28;20064;-68
2022/10/01 10:34:30;;;;;;;13.57;2.53;;;;;;;15.22;100.00;100379.94;5069396;28;20048;-67
2022/10/01 10:36:58;;;;;;;7.15;2.50;;;;;;;15.13;97.53;100379.50;5069254;28;20064;-68
2022/10/01 10:39:30;;;;;;;8.77;2.38;;;;;;;15.07;97.67;100389.31;5069699;28;20109;-68
2022/10/01 10:41:58;;;;;;;14.85;2.83;;;;;;;15.25;98.12;100392.91;5069416;28;20035;-67
2022/10/01 10:44:33;;;;;;;7.63;2.17;;;;;;;15.38;98.61;100392.63;5069360;28;20031;-67
2022/10/01 10:47:01;;;;;;;7.18;2.58;;;;;;;15.53;95.83;100400.13;5068836;28;20032;-67
2022/10/01 10:49:30;;;;;;;21.00;3.22;;;;;;;15.67;95.66;100412.25;5069294;28;20051;-67
2022/10/01 10:51:59;;;;;;;10.98;2.22;;;;;;;15.82;94.04;100418.97;5069101;28;20066;-67
2022/10/01 10:54:32;;;;;;;8.57;1.88;;;;;;;15.86;92.23;100410.19;5069410;28;20044;-68
2022/10/01 10:57:20;;;;;;;9.25;2.25;;;;;;;15.90;92.04;100405.97;5069178;28;20486;-68
2022/10/01 10:59:54;;;;;;;9.73;1.92;;;;;;;16.07;92.63;100415.91;5069109;28;20043;-68
2022/10/01 11:02:22;;;;;;;8.50;2.42;;;;;;;16.15;91.79;100410.94;5069202;28;20024;-68
2022/10/01 11:04:48;;;;;;;10.18;2.42;;;;;;;16.27;90.84;100418.09;5069133;28;20032;-70
2022/10/01 11:07:22;;;;;;;7.30;2.20;;;;;;;16.29;89.81;100422.19;5068963;28;20064;-66
2022/10/01 11:09:47;;;;;;;12.23;3.25;;;;;;;16.21;92.89;100420.72;5069205;28;20137;-67
2022/10/01 11:12:47;;;;;;;15.43;2.50;;;;;;;16.11;90.86;100425.97;5068809;28;20024;-66
2022/10/01 11:15:40;;;;;;;11.20;2.08;;;;;;;15.99;92.02;100439.47;5069293;28;20028;-66
2022/10/01 11:18:14;;;;;;;8.93;3.03;;;;;;;15.97;89.49;100440.75;5069030;28;20032;-68
2022/10/01 11:20:52;;;;;;;7.85;1.77;;;;;;;15.84;87.84;100449.13;5068651;28;20422;-68
2022/10/01 11:23:42;;;;;;;5.93;1.50;;;;;;;15.71;89.08;100458.31;5068878;28;20012;-70
2022/10/01 11:26:13;;;;;;;10.40;2.88;;;;;;;15.61;88.28;100460.78;5068724;28;20055;-70
2022/10/01 11:29:06;;;;;;;9.65;1.70;;;;;;;15.52;88.24;100466.53;5068356;28;20046;-72
2022/10/01 11:31:56;;;;;;;13.13;3.45;;;;;;;15.41;89.66;100463.88;5068916;28;20476;-68
2022/10/01 11:34:22;;;;;;;8.93;1.75;;;;;;;15.30;88.07;100468.22;5068975;28;20024;-70